createdAt,value
2018-11-21T00:02:22.395Z,99.90
2018-11-21T00:04:49.648Z,99.90
2018-11-21T00:09:44.186Z,99.90
2018-11-21T00:12:11.488Z,99.90
2018-11-21T00:14:38.821Z,99.90
2018-11-21T00:17:06.033Z,99.90
2018-11-21T00:19:33.312Z,99.90
2018-11-21T00:22:00.564Z,99.90
2018-11-21T00:24:27.825Z,99.90
2018-11-21T00:26:55.128Z,99.90
2018-11-21T00:29:22.425Z,99.90
2018-11-21T00:31:49.729Z,99.90
2018-11-21T00:34:17.012Z,99.90
2018-11-21T00:36:44.254Z,99.90
2018-11-21T00:39:12.926Z,99.90
2018-11-21T00:41:40.675Z,99.90
2018-11-21T00:44:07.931Z,99.90
2018-11-21T00:46:35.235Z,99.90
2018-11-21T00:49:02.608Z,99.90
2018-11-21T00:51:29.889Z,99.90
2018-11-21T00:53:57.123Z,99.90
2018-11-21T00:56:24.400Z,99.90
2018-11-21T00:58:51.625Z,99.90
2018-11-21T01:01:18.930Z,99.90
2018-11-21T01:03:46.203Z,99.90
2018-11-21T01:08:40.693Z,99.90
2018-11-21T01:11:07.933Z,99.90
2018-11-21T01:13:35.142Z,99.90
2018-11-21T01:16:02.410Z,99.90
2018-11-21T01:18:29.617Z,99.90
2018-11-21T01:20:58.547Z,99.90
2018-11-21T01:23:25.857Z,99.90
2018-11-21T01:25:53.110Z,99.90
2018-11-21T01:28:20.335Z,99.90
2018-11-21T01:30:47.622Z,99.90
2018-11-21T01:35:42.138Z,99.90
2018-11-21T01:38:09.348Z,99.90
2018-11-21T01:40:36.593Z,99.90
2018-11-21T01:43:04.116Z,99.90
2018-11-21T01:47:58.669Z,99.90
2018-11-21T01:50:25.972Z,99.90
2018-11-21T01:52:53.188Z,99.90
2018-11-21T01:55:20.468Z,99.90
2018-11-21T01:57:47.744Z,99.90
2018-11-21T02:00:15.031Z,99.90
2018-11-21T02:02:43.502Z,99.90
2018-11-21T02:07:37.986Z,99.90
2018-11-21T02:12:32.904Z,99.90
2018-11-21T02:15:00.154Z,99.90
2018-11-21T02:17:27.382Z,99.90
2018-11-21T02:19:54.628Z,99.90
2018-11-21T02:22:21.958Z,99.90
2018-11-21T02:24:49.241Z,99.90
2018-11-21T02:27:16.467Z,99.90
2018-11-21T02:29:43.724Z,99.90
2018-11-21T02:32:10.964Z,99.90
2018-11-21T02:34:38.196Z,99.90
2018-11-21T02:37:05.451Z,99.90
2018-11-21T02:39:32.706Z,99.90
2018-11-21T02:42:00.463Z,99.90
2018-11-21T02:44:27.695Z,99.90
2018-11-21T02:46:54.900Z,99.90
2018-11-21T02:49:22.223Z,99.90
2018-11-21T02:51:49.485Z,99.90
2018-11-21T02:54:16.753Z,99.90
2018-11-21T02:57:13.765Z,99.90
2018-11-21T02:59:41.112Z,99.90
2018-11-21T03:04:35.668Z,99.90
2018-11-21T03:09:30.181Z,99.90
2018-11-21T03:14:24.759Z,99.90
2018-11-21T03:19:19.385Z,99.90
2018-11-21T03:26:41.527Z,99.90
2018-11-21T03:29:08.787Z,99.90
2018-11-21T03:31:36.088Z,99.90
2018-11-21T03:34:03.315Z,99.90
2018-11-21T03:36:30.532Z,99.90
2018-11-21T03:41:25.149Z,99.90
2018-11-21T03:43:52.398Z,99.90
2018-11-21T03:46:19.663Z,99.90
2018-11-21T03:48:48.405Z,99.90
2018-11-21T03:51:15.562Z,99.90
2018-11-21T03:53:42.851Z,99.90
2018-11-21T03:56:10.122Z,99.90
2018-11-21T03:58:37.374Z,99.90
2018-11-21T04:01:04.867Z,99.90
2018-11-21T04:03:32.132Z,99.90
2018-11-21T04:05:59.396Z,99.90
2018-11-21T04:08:26.671Z,99.90
2018-11-21T04:10:53.900Z,99.90
2018-11-21T04:15:49.565Z,99.90
2018-11-21T04:20:44.093Z,99.90
2018-11-21T04:25:38.579Z,99.90
2018-11-21T04:30:33.266Z,99.90
2018-11-21T04:35:27.755Z,99.90
2018-11-21T04:40:22.327Z,99.90
2018-11-21T04:45:16.870Z,99.90
2018-11-21T04:50:11.408Z,99.90
2018-11-21T04:55:06.906Z,99.90
2018-11-21T04:57:34.200Z,99.90
2018-11-21T05:00:01.575Z,99.90
2018-11-21T05:02:28.900Z,99.90
2018-11-21T05:04:56.165Z,99.90
2018-11-21T05:07:23.407Z,99.90
2018-11-21T05:09:50.707Z,99.90
2018-11-21T05:12:17.917Z,99.90
2018-11-21T05:14:45.200Z,99.90
2018-11-21T05:17:12.456Z,99.90
2018-11-21T05:19:39.883Z,99.90
2018-11-21T05:22:07.110Z,99.90
2018-11-21T05:24:34.437Z,99.90
2018-11-21T05:27:01.770Z,99.90
2018-11-21T05:29:29.097Z,99.90
2018-11-21T05:31:56.362Z,99.90
2018-11-21T05:34:23.644Z,99.90
2018-11-21T05:36:50.862Z,99.90
2018-11-21T05:39:18.111Z,99.90
2018-11-21T05:41:45.354Z,99.90
2018-11-21T05:44:12.577Z,99.90
2018-11-21T05:46:39.928Z,99.90
2018-11-21T05:49:07.286Z,99.90
2018-11-21T05:51:34.607Z,99.90
2018-11-21T05:54:02.445Z,99.90
2018-11-21T05:56:29.810Z,99.90
2018-11-21T05:58:57.091Z,99.90
2018-11-21T06:01:24.344Z,99.90
2018-11-21T06:03:51.620Z,99.90
2018-11-21T06:06:18.888Z,99.90
2018-11-21T06:08:46.132Z,99.90
2018-11-21T06:13:41.064Z,99.90
2018-11-21T06:16:08.426Z,99.90
2018-11-21T06:18:35.655Z,99.90
2018-11-21T06:21:02.956Z,99.90
2018-11-21T06:23:30.287Z,99.90
2018-11-21T06:25:57.542Z,99.90
2018-11-21T06:28:24.800Z,99.90
2018-11-21T06:33:19.342Z,99.90
2018-11-21T06:38:15.042Z,99.90
2018-11-21T06:40:42.337Z,99.90
2018-11-21T06:43:09.559Z,99.90
2018-11-21T06:45:36.947Z,99.90
2018-11-21T06:48:04.317Z,99.90
2018-11-21T06:50:31.581Z,99.90
2018-11-21T06:52:58.898Z,99.90
2018-11-21T06:55:26.233Z,99.90
2018-11-21T06:57:53.479Z,99.90
2018-11-21T07:02:47.991Z,99.90
2018-11-21T07:05:15.280Z,99.90
2018-11-21T07:10:11.993Z,99.90
2018-11-21T07:12:39.209Z,99.90
2018-11-21T07:15:06.758Z,99.90
2018-11-21T07:17:34.116Z,99.90
2018-11-21T07:20:01.523Z,99.90
2018-11-21T07:22:28.728Z,99.90
2018-11-21T07:24:56.123Z,99.90
2018-11-21T07:27:23.369Z,99.90
2018-11-21T07:29:50.666Z,99.90
2018-11-21T07:32:19.862Z,99.90
2018-11-21T07:34:47.127Z,99.90
2018-11-21T07:37:14.419Z,99.90
2018-11-21T07:39:42.944Z,99.90
2018-11-21T07:42:10.189Z,99.90
2018-11-21T07:44:37.447Z,99.90
2018-11-21T07:47:04.781Z,99.90
2018-11-21T07:51:59.349Z,99.90
2018-11-21T07:54:26.628Z,99.90
2018-11-21T07:57:32.539Z,99.90
2018-11-21T08:01:09.157Z,99.90
2018-11-21T08:03:41.003Z,99.90
2018-11-21T08:06:19.574Z,99.90
2018-11-21T08:09:05.105Z,99.90
2018-11-21T08:11:51.973Z,99.90
2018-11-21T08:14:37.366Z,99.90
2018-11-21T08:17:24.475Z,99.90
2018-11-21T08:20:10.026Z,99.90
2018-11-21T08:22:55.296Z,99.90
2018-11-21T08:28:20.791Z,99.90
2018-11-21T08:30:49.105Z,99.90
2018-11-21T08:33:16.424Z,99.90
2018-11-21T08:35:43.793Z,99.90
2018-11-21T08:38:11.135Z,99.90
2018-11-21T08:40:38.455Z,99.90
2018-11-21T08:43:06.253Z,99.90
2018-11-21T08:45:33.628Z,99.90
2018-11-21T08:48:00.932Z,99.90
2018-11-21T08:50:28.313Z,99.90
2018-11-21T08:52:55.574Z,99.90
2018-11-21T08:55:22.890Z,99.90
2018-11-21T08:57:50.152Z,99.90
2018-11-21T09:00:17.400Z,99.90
2018-11-21T09:02:44.607Z,99.90
2018-11-21T09:05:12.206Z,99.90
2018-11-21T09:07:40.449Z,99.90
2018-11-21T09:10:09.863Z,99.90
2018-11-21T09:12:37.149Z,99.90
2018-11-21T09:15:06.891Z,99.90
2018-11-21T09:17:34.178Z,99.90
2018-11-21T09:20:01.468Z,99.90
2018-11-21T09:22:28.773Z,99.90
2018-11-21T09:24:57.146Z,99.90
2018-11-21T09:27:24.341Z,99.90
2018-11-21T09:29:51.642Z,99.90
2018-11-21T09:32:21.433Z,99.90
2018-11-21T09:34:48.700Z,99.90
2018-11-21T09:37:15.967Z,99.90
2018-11-21T09:39:43.227Z,99.90
2018-11-21T09:42:10.554Z,99.90
2018-11-21T09:44:37.787Z,99.90
2018-11-21T09:47:05.104Z,99.90
2018-11-21T09:49:32.334Z,99.90
2018-11-21T09:51:59.642Z,99.90
2018-11-21T09:54:26.910Z,99.90
2018-11-21T09:59:21.476Z,99.10
2018-11-21T10:02:25.924Z,99.10
2018-11-21T10:04:53.198Z,99.30
2018-11-21T10:07:20.523Z,99.20
2018-11-21T10:09:49.314Z,98.00
2018-11-21T10:12:16.544Z,97.30
2018-11-21T10:14:43.859Z,97.30
2018-11-21T10:17:11.154Z,97.40
2018-11-21T10:19:38.513Z,96.70
2018-11-21T10:22:05.861Z,97.30
2018-11-21T10:24:33.176Z,98.00
2018-11-21T10:27:00.519Z,96.80
2018-11-21T10:31:55.075Z,94.70
2018-11-21T10:34:22.380Z,94.90
2018-11-21T10:36:49.660Z,95.40
2018-11-21T10:39:17.089Z,94.80
2018-11-21T10:41:44.364Z,93.60
2018-11-21T10:44:11.633Z,94.20
2018-11-21T10:46:38.912Z,97.80
2018-11-21T10:49:07.627Z,98.30
2018-11-21T10:51:34.823Z,99.00
2018-11-21T10:54:02.095Z,99.90
2018-11-21T10:56:29.402Z,99.90
2018-11-21T10:58:56.628Z,99.90
2018-11-21T11:01:43.505Z,99.90
2018-11-21T11:04:49.804Z,99.90
2018-11-21T11:07:39.615Z,99.90
2018-11-21T11:10:35.740Z,99.90
2018-11-21T11:13:21.077Z,99.90
2018-11-21T11:16:10.541Z,99.90
2018-11-21T11:18:56.122Z,99.90
2018-11-21T11:21:41.434Z,99.90
2018-11-21T11:24:43.467Z,99.90
2018-11-21T11:27:39.783Z,99.90
2018-11-21T11:30:26.718Z,99.90
2018-11-21T11:33:12.245Z,99.90
2018-11-21T11:35:57.659Z,99.90
2018-11-21T11:38:43.138Z,99.90
2018-11-21T11:41:32.923Z,99.90
2018-11-21T11:44:18.262Z,99.90
2018-11-21T11:47:03.864Z,99.90
2018-11-21T11:50:05.942Z,99.90
2018-11-21T11:52:56.048Z,99.90
2018-11-21T11:55:42.972Z,99.90
2018-11-21T11:58:32.464Z,99.90
2018-11-21T12:01:19.270Z,99.90
2018-11-21T12:07:00.919Z,99.90
2018-11-21T12:09:53.870Z,99.90
2018-11-21T12:12:41.262Z,99.90
2018-11-21T12:15:36.925Z,99.90
2018-11-21T12:18:22.959Z,99.90
2018-11-21T12:23:55.164Z,99.90
2018-11-21T12:26:51.366Z,99.90
2018-11-21T12:29:42.067Z,99.90
2018-11-21T12:35:17.115Z,99.90
2018-11-21T12:38:15.876Z,99.90
2018-11-21T12:41:01.353Z,99.90
2018-11-21T12:43:48.173Z,99.90
2018-11-21T12:46:37.879Z,99.90
2018-11-21T12:49:24.728Z,99.90
2018-11-21T12:52:29.774Z,99.90
2018-11-21T12:55:19.445Z,99.90
2018-11-21T12:58:21.283Z,99.90
2018-11-21T13:01:08.258Z,99.90
2018-11-21T13:03:55.284Z,99.90
2018-11-21T13:06:36.904Z,99.90
2018-11-21T13:09:27.748Z,99.90
2018-11-21T13:12:13.326Z,99.90
2018-11-21T13:15:09.191Z,99.90
2018-11-21T13:17:54.651Z,99.90
2018-11-21T13:20:53.536Z,99.90
2018-11-21T13:23:46.357Z,99.90
2018-11-21T13:26:33.245Z,99.90
2018-11-21T13:29:17.278Z,99.90
2018-11-21T13:31:59.154Z,99.90
2018-11-21T13:37:44.721Z,99.90
2018-11-21T13:40:29.111Z,99.90
2018-11-21T13:46:21.047Z,99.90
2018-11-21T13:52:02.890Z,99.90
2018-11-21T13:54:48.166Z,99.90
2018-11-21T13:59:44.993Z,99.90
2018-11-21T14:02:12.235Z,99.90
2018-11-21T14:04:39.815Z,99.90
2018-11-21T14:07:07.604Z,99.90
2018-11-21T14:12:02.072Z,99.90
2018-11-21T14:14:29.425Z,99.90
2018-11-21T14:16:56.766Z,99.90
2018-11-21T14:21:56.018Z,99.90
2018-11-21T14:24:20.151Z,99.90
2018-11-21T14:26:47.410Z,99.90
2018-11-21T14:29:14.724Z,99.90
2018-11-21T14:31:41.993Z,99.90
2018-11-21T14:34:09.359Z,99.90
2018-11-21T14:36:36.777Z,99.90
2018-11-21T14:39:09.842Z,99.90
2018-11-21T14:41:37.431Z,99.90
2018-11-21T14:44:05.466Z,99.90
2018-11-21T14:46:32.720Z,99.90
2018-11-21T14:49:00.020Z,99.90
2018-11-21T14:51:27.608Z,99.90
2018-11-21T14:53:54.886Z,99.90
2018-11-21T14:58:49.431Z,99.90
2018-11-21T15:03:44.216Z,99.90
2018-11-21T15:06:11.907Z,99.90
2018-11-21T15:11:06.478Z,99.90
2018-11-21T15:13:33.821Z,99.90
2018-11-21T15:16:01.165Z,99.90
2018-11-21T15:18:28.468Z,99.90
2018-11-21T15:20:56.263Z,99.90
2018-11-21T15:23:23.640Z,99.90
2018-11-21T15:25:51.007Z,99.90
2018-11-21T15:28:18.385Z,99.90
2018-11-21T15:33:13.213Z,99.90
2018-11-21T15:38:08.050Z,99.90
2018-11-21T15:43:04.149Z,99.90
2018-11-21T15:45:33.092Z,99.90
2018-11-21T15:52:57.176Z,99.90
2018-11-21T15:55:24.663Z,99.90
2018-11-21T15:57:51.981Z,99.90
2018-11-21T16:02:49.577Z,99.90
2018-11-21T16:05:17.395Z,99.90
2018-11-21T16:10:18.542Z,99.90
2018-11-21T16:15:17.490Z,99.90
2018-11-21T16:17:44.730Z,99.90
2018-11-21T16:20:13.418Z,99.90
2018-11-21T16:22:40.748Z,99.90
2018-11-21T16:25:11.901Z,99.90
2018-11-21T16:30:11.887Z,99.90
2018-11-21T16:32:39.375Z,99.90
2018-11-21T16:35:08.332Z,99.90
2018-11-21T16:37:34.348Z,99.90
2018-11-21T16:40:02.288Z,99.90
2018-11-21T16:42:29.599Z,99.90
2018-11-21T16:44:57.020Z,99.90
2018-11-21T16:47:25.236Z,99.90
2018-11-21T16:52:20.989Z,99.90
2018-11-21T16:54:52.749Z,99.90
2018-11-21T16:57:20.475Z,99.90
2018-11-21T16:59:47.938Z,99.90
2018-11-21T17:04:42.952Z,99.90
2018-11-21T17:07:10.297Z,99.90
2018-11-21T17:12:10.858Z,99.90
2018-11-21T17:14:38.233Z,99.90
2018-11-21T17:17:05.630Z,99.90
2018-11-21T17:26:56.303Z,99.90
2018-11-21T17:31:51.663Z,99.90
2018-11-21T17:34:19.576Z,99.90
2018-11-21T17:36:47.299Z,99.90
2018-11-21T17:39:15.227Z,99.90
2018-11-21T17:44:10.123Z,99.90
2018-11-21T17:49:05.117Z,99.90
2018-11-21T17:51:32.440Z,99.90
2018-11-21T17:53:59.725Z,99.90
2018-11-21T17:56:27.060Z,99.90
2018-11-21T17:58:54.566Z,99.90
2018-11-21T18:01:22.385Z,99.90
2018-11-21T18:03:49.680Z,99.90
2018-11-21T18:06:17.013Z,99.90
2018-11-21T18:08:45.087Z,99.90
2018-11-21T18:11:12.391Z,99.90
2018-11-21T18:13:39.615Z,99.90
2018-11-21T18:16:06.988Z,99.90
2018-11-21T18:21:01.523Z,99.90
2018-11-21T18:23:28.841Z,99.90
2018-11-21T18:25:56.084Z,99.90
2018-11-21T18:28:23.350Z,99.90
2018-11-21T18:30:50.639Z,99.90
2018-11-21T18:33:19.401Z,99.90
2018-11-21T18:35:46.619Z,99.90
2018-11-21T18:38:13.940Z,99.90
2018-11-21T18:40:41.334Z,99.90
2018-11-21T18:43:08.658Z,99.90
2018-11-21T18:45:37.659Z,99.90
2018-11-21T18:48:05.453Z,99.90
2018-11-21T18:50:32.676Z,99.90
2018-11-21T18:55:39.972Z,99.90
2018-11-21T18:58:27.424Z,99.90
2018-11-21T19:00:55.161Z,99.90
2018-11-21T19:03:23.005Z,99.90
2018-11-21T19:05:50.340Z,99.90
2018-11-21T19:08:17.744Z,99.90
2018-11-21T19:10:45.082Z,99.90
2018-11-21T19:13:12.292Z,99.90
2018-11-21T19:15:41.404Z,99.90
2018-11-21T19:18:08.830Z,99.90
2018-11-21T19:20:36.298Z,99.90
2018-11-21T19:25:31.197Z,99.90
2018-11-21T19:27:58.536Z,99.90
2018-11-21T19:30:25.791Z,99.90
2018-11-21T19:32:53.445Z,99.90
2018-11-21T19:35:20.823Z,99.90
2018-11-21T19:37:48.174Z,99.90
2018-11-21T19:40:16.267Z,99.90
2018-11-21T19:45:12.904Z,99.90
2018-11-21T19:47:40.440Z,99.90
2018-11-21T19:50:09.600Z,99.90
2018-11-21T19:52:37.495Z,99.90
2018-11-21T19:55:06.544Z,99.90
2018-11-21T20:00:01.128Z,99.90
2018-11-21T20:04:55.750Z,99.90
2018-11-21T20:09:50.462Z,99.90
2018-11-21T20:12:17.801Z,99.90
2018-11-21T20:14:45.055Z,99.90
2018-11-21T20:17:12.303Z,99.90
2018-11-21T20:19:40.975Z,99.90
2018-11-21T20:22:08.201Z,99.90
2018-11-21T20:24:35.533Z,99.90
2018-11-21T20:27:03.789Z,99.90
2018-11-21T20:31:58.605Z,99.90
2018-11-21T20:36:53.271Z,99.90
2018-11-21T20:47:10.650Z,99.90
2018-11-21T20:49:38.726Z,99.90
2018-11-21T20:52:05.971Z,99.90
2018-11-21T20:54:33.322Z,99.90
2018-11-21T20:57:00.545Z,99.90
2018-11-21T20:59:28.831Z,99.90
2018-11-21T21:01:57.233Z,99.90
2018-11-21T21:06:51.825Z,99.90
2018-11-21T21:11:46.356Z,99.90
2018-11-21T21:16:40.950Z,99.90
2018-11-21T21:21:35.631Z,99.90
2018-11-21T21:31:24.957Z,99.90
2018-11-21T21:36:19.582Z,99.90
2018-11-21T21:41:14.216Z,99.90
2018-11-21T21:51:04.096Z,99.90
2018-11-21T21:55:58.806Z,99.90
2018-11-21T22:00:53.393Z,99.90
2018-11-21T22:05:47.923Z,99.90
2018-11-21T22:10:42.628Z,99.90
2018-11-21T22:13:09.935Z,99.90
2018-11-21T22:15:38.126Z,99.90
2018-11-21T22:20:37.163Z,99.90
2018-11-21T22:23:04.732Z,99.90
2018-11-21T22:25:32.083Z,99.90
2018-11-21T22:28:00.347Z,99.90
2018-11-21T22:32:55.944Z,99.90
2018-11-21T22:35:25.248Z,99.90
2018-11-21T22:37:52.255Z,99.90
2018-11-21T22:40:20.277Z,99.90
2018-11-21T22:42:47.509Z,99.90
2018-11-21T22:45:16.163Z,99.90
2018-11-21T22:47:43.614Z,99.90
2018-11-21T22:52:39.807Z,99.90
2018-11-21T22:55:07.639Z,99.90
2018-11-21T23:00:02.301Z,99.90
2018-11-21T23:02:29.559Z,99.90
2018-11-21T23:04:57.143Z,99.90
2018-11-21T23:09:51.751Z,99.90
2018-11-21T23:12:18.995Z,99.90
2018-11-21T23:17:13.612Z,99.90
2018-11-21T23:19:40.900Z,99.90
2018-11-21T23:22:08.134Z,99.90
2018-11-21T23:24:35.394Z,99.90
2018-11-21T23:27:02.707Z,99.90
2018-11-21T23:29:30.021Z,99.90
2018-11-21T23:31:57.309Z,99.90
2018-11-21T23:34:24.743Z,99.90
2018-11-21T23:39:19.361Z,99.90
2018-11-21T23:44:14.088Z,99.90
2018-11-21T23:49:08.625Z,99.90
2018-11-21T23:54:03.419Z,99.90
2018-11-21T23:58:58.120Z,99.90
